createdAt,value
2019-02-06T00:01:46.992Z,102557.27
2019-02-06T00:04:15.502Z,102561.68
2019-02-06T00:06:42.722Z,102564.52
2019-02-06T00:09:13.213Z,102568.84
2019-02-06T00:11:40.671Z,102569.47
2019-02-06T00:14:08.052Z,102572.69
2019-02-06T00:16:35.429Z,102563.80
2019-02-06T00:19:02.463Z,102563.75
2019-02-06T00:21:29.887Z,102565.47
2019-02-06T00:23:57.484Z,102570.16
2019-02-06T00:26:24.549Z,102568.36
2019-02-06T00:28:52.051Z,102567.76
2019-02-06T00:31:20.454Z,102571.66
2019-02-06T00:33:48.089Z,102572.77
2019-02-06T00:36:16.060Z,102573.95
2019-02-06T00:38:43.421Z,102570.84
2019-02-06T00:41:12.936Z,102577.77
2019-02-06T00:43:40.275Z,102571.92
2019-02-06T00:46:07.629Z,102568.41
2019-02-06T00:48:34.981Z,102569.91
2019-02-06T00:51:03.076Z,102568.98
2019-02-06T00:53:30.719Z,102564.77
2019-02-06T00:55:58.068Z,102562.11
2019-02-06T00:58:26.138Z,102560.66
2019-02-06T01:00:53.495Z,102554.68
2019-02-06T01:03:21.060Z,102557.99
2019-02-06T01:05:48.119Z,102558.39
2019-02-06T01:08:15.457Z,102551.91
2019-02-06T01:10:43.227Z,102556.73
2019-02-06T01:13:10.570Z,102561.03
2019-02-06T01:15:37.930Z,102559.34
2019-02-06T01:18:05.592Z,102554.20
2019-02-06T01:20:33.046Z,102557.87
2019-02-06T01:23:00.089Z,102555.55
2019-02-06T01:25:27.447Z,102553.72
2019-02-06T01:27:54.801Z,102542.80
2019-02-06T01:30:24.515Z,102550.91
2019-02-06T01:32:51.585Z,102557.11
2019-02-06T01:35:18.914Z,102549.08
2019-02-06T01:37:46.378Z,102548.53
2019-02-06T01:40:15.283Z,102541.22
2019-02-06T01:42:42.768Z,102541.08
2019-02-06T01:45:11.422Z,102541.66
2019-02-06T01:47:38.481Z,102532.52
2019-02-06T01:50:08.869Z,102534.47
2019-02-06T01:52:36.536Z,102530.31
2019-02-06T01:55:04.633Z,102532.29
2019-02-06T01:57:31.685Z,102530.50
2019-02-06T01:59:58.970Z,102533.62
2019-02-06T02:02:26.093Z,102526.38
2019-02-06T02:04:53.777Z,102531.80
2019-02-06T02:07:20.840Z,102532.16
2019-02-06T02:09:49.014Z,102526.76
2019-02-06T02:12:16.071Z,102524.69
2019-02-06T02:14:45.322Z,102527.38
2019-02-06T02:17:12.592Z,102523.27
2019-02-06T02:19:39.734Z,102520.69
2019-02-06T02:22:06.789Z,102523.00
2019-02-06T02:24:33.880Z,102512.88
2019-02-06T02:27:01.107Z,102508.45
2019-02-06T02:29:28.160Z,102510.55
2019-02-06T02:31:55.376Z,102503.77
2019-02-06T02:34:23.309Z,102503.59
2019-02-06T02:36:50.462Z,102499.02
2019-02-06T02:39:19.828Z,102501.70
2019-02-06T02:41:46.878Z,102488.54
2019-02-06T02:44:14.304Z,102496.40
2019-02-06T02:46:41.345Z,102487.97
2019-02-06T02:49:08.657Z,102479.77
2019-02-06T02:51:35.700Z,102479.38
2019-02-06T02:54:03.949Z,102477.98
2019-02-06T02:56:30.988Z,102480.38
2019-02-06T02:58:58.226Z,102477.95
2019-02-06T03:01:34.161Z,102477.26
2019-02-06T03:04:21.662Z,102469.63
2019-02-06T03:06:48.827Z,102470.45
2019-02-06T03:09:15.905Z,102472.59
2019-02-06T03:11:43.024Z,102469.42
2019-02-06T03:14:10.450Z,102469.83
2019-02-06T03:16:37.481Z,102462.20
2019-02-06T03:19:04.709Z,102462.01
2019-02-06T03:21:31.749Z,102450.46
2019-02-06T03:23:59.086Z,102439.55
2019-02-06T03:26:26.208Z,102443.52
2019-02-06T03:28:53.233Z,102439.29
2019-02-06T03:31:20.627Z,102432.33
2019-02-06T03:33:48.862Z,102427.20
2019-02-06T03:36:15.887Z,102415.83
2019-02-06T03:38:44.776Z,102417.43
2019-02-06T03:41:11.804Z,102419.77
2019-02-06T03:43:38.890Z,102410.90
2019-02-06T03:46:06.297Z,102407.17
2019-02-06T03:48:33.331Z,102401.40
2019-02-06T03:51:00.652Z,102384.65
2019-02-06T03:53:27.693Z,102392.83
2019-02-06T03:55:54.709Z,102386.48
2019-02-06T03:58:21.761Z,102387.17
2019-02-06T04:00:48.784Z,102380.61
2019-02-06T04:03:15.817Z,102368.52
2019-02-06T04:05:43.582Z,102369.77
2019-02-06T04:08:11.622Z,102369.08
2019-02-06T04:10:39.523Z,102369.74
2019-02-06T04:13:06.875Z,102369.05
2019-02-06T04:15:35.146Z,102373.96
2019-02-06T04:18:02.507Z,102370.84
2019-02-06T04:20:29.546Z,102359.33
2019-02-06T04:22:57.213Z,102347.39
2019-02-06T04:25:24.565Z,102345.27
2019-02-06T04:27:51.996Z,102335.80
2019-02-06T04:30:19.705Z,102327.58
2019-02-06T04:32:47.040Z,102328.08
2019-02-06T04:35:14.605Z,102329.77
2019-02-06T04:37:41.648Z,102324.13
2019-02-06T04:40:14.817Z,102317.20
2019-02-06T04:42:41.877Z,102318.50
2019-02-06T04:45:10.263Z,102310.53
2019-02-06T04:47:37.467Z,102304.97
2019-02-06T04:50:06.554Z,102293.81
2019-02-06T04:52:34.269Z,102288.28
2019-02-06T04:55:01.475Z,102262.48
2019-02-06T04:57:28.690Z,102267.63
2019-02-06T04:59:56.851Z,102292.34
2019-02-06T05:02:24.550Z,102288.11
2019-02-06T05:04:51.588Z,102288.91
2019-02-06T05:07:19.750Z,102285.20
2019-02-06T05:09:47.029Z,102276.88
2019-02-06T05:12:14.237Z,102276.47
2019-02-06T05:14:41.315Z,102265.62
2019-02-06T05:17:08.393Z,102262.56
2019-02-06T05:19:35.782Z,102261.25
2019-02-06T05:22:03.551Z,102269.94
2019-02-06T05:24:31.319Z,102265.93
2019-02-06T05:26:58.725Z,102268.02
2019-02-06T05:29:26.332Z,102271.91
2019-02-06T05:31:53.652Z,102266.44
2019-02-06T05:34:21.346Z,102267.66
2019-02-06T05:36:50.968Z,102257.53
2019-02-06T05:39:17.676Z,102253.05
2019-02-06T05:41:45.053Z,102252.84
2019-02-06T05:44:12.403Z,102252.30
2019-02-06T05:46:40.784Z,102250.37
2019-02-06T05:49:08.175Z,102251.75
2019-02-06T05:51:36.624Z,102241.94
2019-02-06T05:54:04.587Z,102236.28
2019-02-06T05:56:32.103Z,102236.78
2019-02-06T05:58:59.499Z,102244.84
2019-02-06T06:01:27.569Z,102239.03
2019-02-06T06:03:54.924Z,102238.50
2019-02-06T06:06:22.285Z,102238.73
2019-02-06T06:08:49.939Z,102236.89
2019-02-06T06:11:17.306Z,102233.72
2019-02-06T06:13:44.671Z,102229.25
2019-02-06T06:16:13.235Z,102237.58
2019-02-06T06:18:40.896Z,102221.13
2019-02-06T06:21:09.820Z,102227.02
2019-02-06T06:23:37.164Z,102227.53
2019-02-06T06:26:04.609Z,102216.71
2019-02-06T06:28:31.640Z,102211.09
2019-02-06T06:30:59.140Z,102199.89
2019-02-06T06:33:26.196Z,102190.43
2019-02-06T06:35:53.777Z,102185.08
2019-02-06T06:38:20.850Z,102193.55
2019-02-06T06:40:48.825Z,102179.47
2019-02-06T06:43:16.542Z,102169.44
2019-02-06T06:45:44.356Z,102161.27
2019-02-06T06:48:12.320Z,102156.78
2019-02-06T06:50:39.675Z,102146.95
2019-02-06T06:53:07.025Z,102146.87
2019-02-06T06:55:35.391Z,102156.73
2019-02-06T06:58:02.454Z,102152.55
2019-02-06T07:00:30.941Z,102141.17
2019-02-06T07:03:00.019Z,102133.58
2019-02-06T07:05:27.284Z,102134.30
2019-02-06T07:07:54.785Z,102128.09
2019-02-06T07:10:22.259Z,102122.39
2019-02-06T07:12:49.312Z,102126.72
2019-02-06T07:15:21.420Z,102120.11
2019-02-06T07:17:48.583Z,102122.23
2019-02-06T07:20:17.277Z,102116.28
2019-02-06T07:22:44.662Z,102118.81
2019-02-06T07:25:13.670Z,102119.65
2019-02-06T07:27:41.055Z,102117.30
2019-02-06T07:30:13.307Z,102116.52
2019-02-06T07:32:40.376Z,102106.56
2019-02-06T07:35:07.448Z,102108.98
2019-02-06T07:37:36.002Z,102111.69
2019-02-06T07:40:04.262Z,102102.38
2019-02-06T07:42:31.652Z,102095.98
2019-02-06T07:45:00.174Z,102095.55
2019-02-06T07:47:28.169Z,102086.80
2019-02-06T07:49:55.166Z,102079.81
2019-02-06T07:52:22.185Z,102082.45
2019-02-06T07:54:49.185Z,102084.13
2019-02-06T07:57:17.369Z,102084.31
2019-02-06T07:59:44.373Z,102070.10
2019-02-06T08:02:11.581Z,102074.93
2019-02-06T08:04:41.454Z,102071.63
2019-02-06T08:07:07.528Z,102046.45
2019-02-06T08:09:34.525Z,102056.41
2019-02-06T08:12:01.645Z,102064.04
2019-02-06T08:14:32.997Z,102052.42
2019-02-06T08:17:00.002Z,102044.80
2019-02-06T08:19:27.197Z,102053.69
2019-02-06T08:21:54.299Z,102052.88
2019-02-06T08:24:21.661Z,102052.27
2019-02-06T08:26:48.654Z,102052.00
2019-02-06T08:29:15.803Z,102040.58
2019-02-06T08:31:44.227Z,102031.77
2019-02-06T08:34:12.350Z,102006.47
2019-02-06T08:36:40.463Z,102006.64
2019-02-06T08:39:07.933Z,102001.95
2019-02-06T08:41:35.120Z,102001.48
2019-02-06T08:44:02.401Z,101998.84
2019-02-06T08:46:29.871Z,101996.93
2019-02-06T08:48:57.678Z,101991.12
2019-02-06T08:51:25.335Z,101989.73
2019-02-06T08:53:53.126Z,102000.14
2019-02-06T08:56:22.245Z,101989.58
2019-02-06T08:58:50.068Z,102001.40
2019-02-06T09:01:17.121Z,102003.11
2019-02-06T09:03:44.180Z,102002.28
2019-02-06T09:06:11.524Z,101990.50
2019-02-06T09:08:39.588Z,101987.98
2019-02-06T09:11:06.895Z,101996.23
2019-02-06T09:13:34.750Z,101994.86
2019-02-06T09:16:04.002Z,101994.69
2019-02-06T09:18:32.152Z,102002.48
2019-02-06T09:20:59.842Z,102003.02
2019-02-06T09:23:26.904Z,102001.36
2019-02-06T09:25:56.976Z,102001.92
2019-02-06T09:28:23.217Z,102014.42
2019-02-06T09:30:50.403Z,102018.99
2019-02-06T09:33:17.857Z,102031.49
2019-02-06T09:35:44.961Z,102027.38
2019-02-06T09:38:12.018Z,102028.11
2019-02-06T09:40:39.442Z,102037.72
2019-02-06T09:43:07.364Z,102035.52
2019-02-06T09:45:34.438Z,102035.14
2019-02-06T09:48:01.895Z,102025.38
2019-02-06T09:50:31.614Z,102026.11
2019-02-06T09:52:58.986Z,102011.79
2019-02-06T09:55:26.507Z,102011.36
2019-02-06T09:57:53.566Z,102003.02
2019-02-06T10:00:23.550Z,102002.63
2019-02-06T10:02:51.210Z,102001.22
2019-02-06T10:05:19.884Z,101996.73
2019-02-06T10:07:47.256Z,101996.49
2019-02-06T10:10:16.681Z,101999.76
2019-02-06T10:12:45.238Z,102001.01
2019-02-06T10:15:21.811Z,101995.73
2019-02-06T10:17:49.510Z,101996.83
2019-02-06T10:20:17.740Z,101991.95
2019-02-06T10:22:45.510Z,101995.78
2019-02-06T10:25:14.203Z,101997.88
2019-02-06T10:27:43.393Z,101992.22
2019-02-06T10:30:18.905Z,101994.36
2019-02-06T10:32:45.953Z,101989.73
2019-02-06T10:35:13.350Z,101987.24
2019-02-06T10:37:40.696Z,101982.63
2019-02-06T10:40:08.257Z,101976.72
2019-02-06T10:42:35.715Z,101976.48
2019-02-06T10:45:03.992Z,101979.28
2019-02-06T10:47:31.348Z,101975.72
2019-02-06T10:49:58.807Z,101974.34
2019-02-06T10:52:26.961Z,101972.44
2019-02-06T10:54:56.074Z,101973.92
2019-02-06T10:57:23.136Z,101971.16
2019-02-06T10:59:50.471Z,101971.05
2019-02-06T11:02:17.827Z,101966.09
2019-02-06T11:04:45.032Z,101963.10
2019-02-06T11:07:12.088Z,101960.36
2019-02-06T11:09:46.119Z,101952.55
2019-02-06T11:12:11.125Z,101958.94
2019-02-06T11:14:38.641Z,101948.92
2019-02-06T11:17:05.734Z,101958.74
2019-02-06T11:19:32.797Z,101946.16
2019-02-06T11:21:59.975Z,101951.75
2019-02-06T11:24:28.226Z,101948.98
2019-02-06T11:26:56.483Z,101955.30
2019-02-06T11:29:25.270Z,101956.84
2019-02-06T11:31:53.761Z,101956.84
2019-02-06T11:34:21.139Z,101951.04
2019-02-06T11:36:48.226Z,101952.08
2019-02-06T11:39:23.095Z,101946.02
2019-02-06T11:41:50.783Z,101953.16
2019-02-06T11:44:18.936Z,101949.03
2019-02-06T11:46:46.288Z,101944.09
2019-02-06T11:49:14.459Z,101938.63
2019-02-06T11:51:41.812Z,101932.25
2019-02-06T11:54:09.474Z,101929.70
2019-02-06T11:56:36.562Z,101929.47
2019-02-06T11:59:03.699Z,101921.34
2019-02-06T12:01:35.208Z,101920.42
2019-02-06T12:04:02.263Z,101919.85
2019-02-06T12:06:29.371Z,101916.66
2019-02-06T12:08:57.723Z,101921.87
2019-02-06T12:11:24.797Z,101914.02
2019-02-06T12:13:53.046Z,101920.84
2019-02-06T12:16:20.242Z,101912.30
2019-02-06T12:18:49.790Z,101908.26
2019-02-06T12:21:18.137Z,101897.02
2019-02-06T12:23:45.298Z,101906.08
2019-02-06T12:26:12.686Z,101919.59
2019-02-06T12:28:41.959Z,101903.06
2019-02-06T12:31:09.518Z,101909.45
2019-02-06T12:33:38.716Z,101897.21
2019-02-06T12:36:06.377Z,101894.92
2019-02-06T12:38:33.739Z,101884.25
2019-02-06T12:41:01.088Z,101885.20
2019-02-06T12:43:29.353Z,101882.22
2019-02-06T12:45:57.133Z,101880.92
2019-02-06T12:48:24.794Z,101889.67
2019-02-06T12:50:51.856Z,101885.36
2019-02-06T12:53:20.019Z,101871.48
2019-02-06T12:55:47.104Z,101875.74
2019-02-06T12:58:15.309Z,101876.33
2019-02-06T13:00:42.524Z,101874.20
2019-02-06T13:03:09.943Z,101880.66
2019-02-06T13:05:37.295Z,101870.87
2019-02-06T13:08:06.493Z,101868.46
2019-02-06T13:10:34.625Z,101871.82
2019-02-06T13:13:03.555Z,101871.44
2019-02-06T13:15:31.384Z,101860.39
2019-02-06T13:17:58.513Z,101861.50
2019-02-06T13:20:27.354Z,101856.84
2019-02-06T13:22:55.539Z,101859.28
2019-02-06T13:25:23.718Z,101861.20
2019-02-06T13:27:50.765Z,101858.98
2019-02-06T13:30:20.884Z,101858.28
2019-02-06T13:32:48.359Z,101861.77
2019-02-06T13:35:17.785Z,101866.73
2019-02-06T13:37:44.835Z,101853.30
2019-02-06T13:40:14.376Z,101854.16
2019-02-06T13:42:41.718Z,101852.94
2019-02-06T13:45:11.739Z,101837.80
2019-02-06T13:47:38.811Z,101843.34
2019-02-06T13:50:08.082Z,101839.10
2019-02-06T13:52:35.574Z,101850.03
2019-02-06T13:55:02.667Z,101843.87
2019-02-06T13:57:33.861Z,101844.67
2019-02-06T13:59:59.472Z,101842.73
2019-02-06T14:02:26.535Z,101843.53
2019-02-06T14:04:53.866Z,101850.80
2019-02-06T14:07:21.736Z,101846.63
2019-02-06T14:09:49.222Z,101844.09
2019-02-06T14:12:17.395Z,101847.92
2019-02-06T14:14:45.134Z,101848.45
2019-02-06T14:17:12.901Z,101838.36
2019-02-06T14:19:39.943Z,101834.46
2019-02-06T14:22:09.848Z,101829.77
2019-02-06T14:25:02.632Z,101836.06
2019-02-06T14:28:04.650Z,101828.48
2019-02-06T14:30:58.934Z,101830.41
2019-02-06T14:33:38.450Z,101827.36
2019-02-06T14:36:47.246Z,101822.22
2019-02-06T14:39:25.003Z,101816.48
2019-02-06T14:42:18.097Z,101822.58
2019-02-06T14:45:11.121Z,101816.77
2019-02-06T14:48:17.872Z,101817.75
2019-02-06T14:51:36.071Z,101813.00
2019-02-06T14:54:31.116Z,101812.13
2019-02-06T14:57:36.025Z,101811.64
2019-02-06T15:00:27.523Z,101804.55
2019-02-06T15:03:43.415Z,101811.64
2019-02-06T15:06:39.182Z,101801.72
2019-02-06T15:09:45.741Z,101805.95
2019-02-06T15:12:57.450Z,101800.88
2019-02-06T15:15:50.335Z,101795.42
2019-02-06T15:18:37.827Z,101788.77
2019-02-06T15:21:36.489Z,101786.34
2019-02-06T15:25:01.841Z,101784.52
2019-02-06T15:28:42.909Z,101790.06
2019-02-06T15:31:53.357Z,101788.89
2019-02-06T15:35:10.266Z,101790.91
2019-02-06T15:38:15.595Z,101784.41
2019-02-06T15:40:54.293Z,101782.84
2019-02-06T15:44:00.286Z,101789.98
2019-02-06T15:46:42.170Z,101783.13
2019-02-06T15:49:30.661Z,101784.75
2019-02-06T15:52:38.602Z,101784.58
2019-02-06T15:55:50.883Z,101787.73
2019-02-06T15:58:47.186Z,101781.38
2019-02-06T16:01:39.058Z,101794.62
2019-02-06T16:05:40.703Z,101790.94
2019-02-06T16:09:01.573Z,101795.54
2019-02-06T16:11:51.019Z,101785.64
2019-02-06T16:14:53.619Z,101790.70
2019-02-06T16:17:49.951Z,101784.30
2019-02-06T16:20:53.877Z,101786.26
2019-02-06T16:23:56.842Z,101793.33
2019-02-06T16:27:02.407Z,101791.09
2019-02-06T16:30:03.007Z,101794.09
2019-02-06T16:32:59.159Z,101791.38
2019-02-06T16:35:54.147Z,101795.22
2019-02-06T16:38:39.801Z,101791.09
2019-02-06T16:41:56.681Z,101786.56
2019-02-06T16:44:58.207Z,101785.05
2019-02-06T16:48:00.096Z,101795.47
2019-02-06T16:50:52.427Z,101794.17
2019-02-06T16:54:08.469Z,101794.20
2019-02-06T16:57:27.083Z,101791.67
2019-02-06T17:00:31.301Z,101798.95
2019-02-06T17:03:40.854Z,101788.78
2019-02-06T17:06:39.625Z,101799.13
2019-02-06T17:09:55.231Z,101789.07
2019-02-06T17:12:54.319Z,101797.36
2019-02-06T17:16:07.747Z,101791.48
2019-02-06T17:19:13.196Z,101788.05
2019-02-06T17:21:57.230Z,101788.20
2019-02-06T17:24:48.123Z,101794.14
2019-02-06T17:27:40.756Z,101792.02
2019-02-06T17:30:53.146Z,101784.12
2019-02-06T17:33:51.989Z,101787.13
2019-02-06T17:36:50.487Z,101780.62
2019-02-06T17:39:57.194Z,101778.48
2019-02-06T17:43:09.873Z,101773.36
2019-02-06T17:46:15.428Z,101775.42
2019-02-06T17:49:22.006Z,101766.09
2019-02-06T17:52:17.137Z,101763.16
2019-02-06T17:55:20.512Z,101760.97
2019-02-06T17:57:49.504Z,101764.63
2019-02-06T18:00:28.248Z,101766.94
2019-02-06T18:02:55.368Z,101766.86
2019-02-06T18:05:22.443Z,101759.75
2019-02-06T18:07:49.487Z,101758.66
2019-02-06T18:10:17.030Z,101760.59
2019-02-06T18:12:44.064Z,101760.81
2019-02-06T18:15:11.101Z,101763.48
2019-02-06T18:17:38.307Z,101767.23
2019-02-06T18:20:07.627Z,101765.09
2019-02-06T18:22:34.658Z,101766.94
2019-02-06T18:25:02.270Z,101770.46
2019-02-06T18:27:30.451Z,101776.25
2019-02-06T18:29:58.184Z,101780.48
2019-02-06T18:32:25.271Z,101779.48
2019-02-06T18:34:52.748Z,101775.50
2019-02-06T18:37:20.927Z,101767.07
2019-02-06T18:39:48.137Z,101770.62
2019-02-06T18:42:17.341Z,101771.89
2019-02-06T18:44:46.137Z,101769.00
2019-02-06T18:47:13.232Z,101771.22
2019-02-06T18:49:40.322Z,101771.52
2019-02-06T18:52:07.707Z,101772.73
2019-02-06T18:54:35.916Z,101772.44
2019-02-06T18:57:02.964Z,101764.63
2019-02-06T18:59:30.096Z,101761.27
2019-02-06T19:01:57.245Z,101764.63
2019-02-06T19:04:24.490Z,101763.95
2019-02-06T19:06:52.433Z,101763.20
2019-02-06T19:09:20.105Z,101766.77
2019-02-06T19:11:47.164Z,101761.64
2019-02-06T19:14:15.207Z,101756.53
2019-02-06T19:16:42.293Z,101750.32
2019-02-06T19:19:09.354Z,101763.28
2019-02-06T19:21:36.414Z,101758.50
2019-02-06T19:24:04.411Z,101754.55
2019-02-06T19:26:32.168Z,101738.69
2019-02-06T19:28:59.594Z,101747.25
2019-02-06T19:31:28.479Z,101743.73
2019-02-06T19:33:55.539Z,101736.70
2019-02-06T19:36:23.320Z,101735.25
2019-02-06T19:38:50.763Z,101742.29
2019-02-06T19:41:17.820Z,101740.83
2019-02-06T19:43:44.897Z,101736.91
2019-02-06T19:46:12.299Z,101729.67
2019-02-06T19:48:39.345Z,101725.91
2019-02-06T19:51:06.749Z,101722.02
2019-02-06T19:53:33.967Z,101728.14
2019-02-06T19:56:01.035Z,101739.13
2019-02-06T19:58:28.508Z,101737.01
2019-02-06T20:00:55.742Z,101737.69
2019-02-06T20:03:22.762Z,101730.97
2019-02-06T20:05:49.801Z,101722.30
2019-02-06T20:08:16.961Z,101722.97
2019-02-06T20:10:45.543Z,101720.84
2019-02-06T20:13:14.619Z,101720.47
2019-02-06T20:15:41.885Z,101722.69
2019-02-06T20:18:09.365Z,101721.63
2019-02-06T20:20:36.431Z,101716.86
2019-02-06T20:23:19.451Z,101719.92
2019-02-06T20:25:46.609Z,101722.59
2019-02-06T20:28:13.646Z,101719.16
2019-02-06T20:30:40.869Z,101725.68
2019-02-06T20:33:09.206Z,101726.22
2019-02-06T20:35:37.118Z,101722.52
2019-02-06T20:38:04.317Z,101711.90
2019-02-06T20:40:33.074Z,101705.09
2019-02-06T20:43:01.127Z,101700.04
2019-02-06T20:45:29.240Z,101686.72
2019-02-06T20:47:57.828Z,101688.99
2019-02-06T20:50:29.258Z,101680.09
2019-02-06T20:52:57.072Z,101679.25
2019-02-06T20:55:24.542Z,101675.27
2019-02-06T20:57:51.717Z,101677.73
2019-02-06T21:00:24.153Z,101680.15
2019-02-06T21:02:51.281Z,101671.83
2019-02-06T21:05:18.820Z,101669.27
2019-02-06T21:07:46.426Z,101664.59
2019-02-06T21:10:16.106Z,101657.88
2019-02-06T21:12:43.221Z,101661.30
2019-02-06T21:15:10.541Z,101647.63
2019-02-06T21:17:37.608Z,101653.67
2019-02-06T21:20:07.164Z,101654.22
2019-02-06T21:22:34.594Z,101649.86
2019-02-06T21:25:04.372Z,101651.05
2019-02-06T21:27:33.148Z,101638.48
2019-02-06T21:30:00.395Z,101636.42
2019-02-06T21:32:27.715Z,101621.80
2019-02-06T21:34:55.343Z,101623.63
2019-02-06T21:37:23.638Z,101630.62
2019-02-06T21:39:50.716Z,101641.09
2019-02-06T21:42:18.206Z,101646.45
2019-02-06T21:44:45.497Z,101648.47
2019-02-06T21:47:13.067Z,101657.55
2019-02-06T21:49:40.532Z,101653.67
2019-02-06T21:52:09.615Z,101648.78
2019-02-06T21:54:37.559Z,101640.42
2019-02-06T21:57:05.439Z,101640.45
2019-02-06T21:59:32.698Z,101633.75
2019-02-06T22:02:01.485Z,101635.48
2019-02-06T22:04:28.770Z,101633.66
2019-02-06T22:06:56.199Z,101612.83
2019-02-06T22:09:23.572Z,101599.07
2019-02-06T22:11:50.988Z,101596.63
2019-02-06T22:14:18.457Z,101603.52
2019-02-06T22:16:45.588Z,101606.64
2019-02-06T22:19:13.389Z,101614.25
2019-02-06T22:21:40.593Z,101613.06
2019-02-06T22:24:07.689Z,101601.75
2019-02-06T22:26:34.791Z,101601.46
2019-02-06T22:29:01.881Z,101610.86
2019-02-06T22:31:29.356Z,101613.61
2019-02-06T22:33:57.309Z,101610.43
2019-02-06T22:36:26.695Z,101614.88
2019-02-06T22:38:54.154Z,101612.00
2019-02-06T22:41:21.559Z,101606.87
2019-02-06T22:43:49.078Z,101604.53
2019-02-06T22:46:16.261Z,101598.91
2019-02-06T22:48:43.356Z,101597.73
2019-02-06T22:51:10.430Z,101593.47
2019-02-06T22:53:38.066Z,101588.02
2019-02-06T22:56:05.401Z,101584.88
2019-02-06T22:58:32.517Z,101594.66
2019-02-06T23:01:21.928Z,101589.69
2019-02-06T23:03:49.632Z,101572.75
2019-02-06T23:06:16.760Z,101570.79
2019-02-06T23:08:44.142Z,101566.69
2019-02-06T23:11:11.221Z,101566.28
2019-02-06T23:13:40.194Z,101562.45
2019-02-06T23:16:07.716Z,101567.10
2019-02-06T23:18:35.803Z,101568.31
2019-02-06T23:21:02.845Z,101569.72
2019-02-06T23:23:31.021Z,101561.68
2019-02-06T23:25:58.357Z,101563.20
2019-02-06T23:28:25.406Z,101549.68
2019-02-06T23:30:52.512Z,101554.69
2019-02-06T23:33:19.542Z,101549.02
2019-02-06T23:35:48.186Z,101549.29
2019-02-06T23:38:15.628Z,101542.47
2019-02-06T23:40:43.110Z,101532.52
2019-02-06T23:43:10.276Z,101523.59
2019-02-06T23:45:37.372Z,101522.20
2019-02-06T23:48:05.484Z,101514.06
2019-02-06T23:50:33.136Z,101507.78
2019-02-06T23:53:01.614Z,101503.97
2019-02-06T23:55:28.782Z,101499.83
2019-02-06T23:57:56.423Z,101502.11
